Time,TemperatureF,DewpointF,PressureIn,WindDirection,WindDirectionDegrees,WindSpeedMPH,WindSpeedGustMPH,Humidity,HourlyPrecipIn,Conditions,Clouds,dailyrainin,SoftwareType,DateUTC
2013-03-25 00:04:00,29.5,24.0,29.79,NNW,335,0.0,1.0,81,0.00,,,0.00,weatherlink.com 1.10,2013-03-25 04:04:00,
2013-03-25 00:19:00,29.4,24.0,29.79,NNW,335,0.0,0.0,80,0.00,,,0.00,weatherlink.com 1.10,2013-03-25 04:19:00,
2013-03-25 00:34:00,29.1,24.0,29.79,NNW,335,0.0,0.0,82,0.00,,,0.00,weatherlink.com 1.10,2013-03-25 04:34:00,
2013-03-25 00:49:00,28.5,24.0,29.78,NNW,335,0.0,1.0,83,0.00,,,0.00,weatherlink.com 1.10,2013-03-25 04:49:00,
2013-03-25 01:04:00,28.2,24.0,29.78,NNW,335,0.0,0.0,85,0.00,,,0.00,weatherlink.com 1.10,2013-03-25 05:04:00,
2013-03-25 01:19:00,28.2,24.0,29.78,NNW,335,0.0,0.0,84,0.00,,,0.00,weatherlink.com 1.10,2013-03-25 05:19:00,
2013-03-25 01:34:00,28.4,24.0,29.77,NNW,335,0.0,0.0,84,0.00,,,0.00,weatherlink.com 1.10,2013-03-25 05:34:00,
2013-03-25 01:49:00,28.5,24.0,29.77,NNW,335,0.0,0.0,84,0.00,,,0.00,weatherlink.com 1.10,2013-03-25 05:49:00,
2013-03-25 02:05:00,28.6,24.0,29.77,NNW,335,0.0,0.0,84,0.00,,,0.00,weatherlink.com 1.10,2013-03-25 06:05:00,
2013-03-25 02:20:00,28.7,24.0,29.76,NNW,335,0.0,0.0,83,0.00,,,0.00,weatherlink.com 1.10,2013-03-25 06:20:00,
2013-03-25 02:35:00,28.6,24.0,29.76,NNW,335,0.0,0.0,82,0.00,,,0.00,weatherlink.com 1.10,2013-03-25 06:35:00,
2013-03-25 02:50:00,28.6,24.0,29.75,NNW,335,0.0,0.0,84,0.00,,,0.00,weatherlink.com 1.10,2013-03-25 06:50:00,
2013-03-25 03:05:00,28.4,25.0,29.75,NNW,335,0.0,0.0,85,0.00,,,0.00,weatherlink.com 1.10,2013-03-25 07:05:00,
2013-03-25 03:20:00,28.3,24.0,29.74,NNW,335,0.0,0.0,84,0.00,,,0.00,weatherlink.com 1.10,2013-03-25 07:20:00,
2013-03-25 03:35:00,28.2,24.0,29.74,NNW,335,0.0,0.0,84,0.00,,,0.00,weatherlink.com 1.10,2013-03-25 07:35:00,
2013-03-25 03:50:00,28.0,24.0,29.73,NNW,335,0.0,0.0,84,0.00,,,0.00,weatherlink.com 1.10,2013-03-25 07:50:00,
2013-03-25 04:05:00,27.8,24.0,29.73,NNW,335,0.0,0.0,84,0.00,,,0.00,weatherlink.com 1.10,2013-03-25 08:05:00,
2013-03-25 04:20:00,27.5,24.0,29.73,NNW,335,0.0,0.0,85,0.00,,,0.00,weatherlink.com 1.10,2013-03-25 08:20:00,
2013-03-25 04:35:00,27.4,24.0,29.73,NNW,335,0.0,0.0,87,0.00,,,0.00,weatherlink.com 1.10,2013-03-25 08:35:00,
2013-03-25 04:50:00,27.1,24.0,29.72,NNW,335,0.0,0.0,88,0.00,,,0.00,weatherlink.com 1.10,2013-03-25 08:50:00,
2013-03-25 05:05:00,27.1,24.0,29.72,NNW,335,0.0,0.0,88,0.00,,,0.00,weatherlink.com 1.10,2013-03-25 09:05:00,
2013-03-25 05:20:00,27.0,24.0,29.72,NNW,335,0.0,0.0,89,0.00,,,0.00,weatherlink.com 1.10,2013-03-25 09:20:00,
2013-03-25 05:35:00,26.9,24.0,29.72,NNW,335,0.0,0.0,90,0.00,,,0.00,weatherlink.com 1.10,2013-03-25 09:35:00,
2013-03-25 05:50:00,26.8,24.0,29.72,NNW,335,0.0,0.0,90,0.00,,,0.00,weatherlink.com 1.10,2013-03-25 09:50:00,
2013-03-25 06:05:00,26.8,24.0,29.72,NNW,335,0.0,0.0,90,0.00,,,0.00,weatherlink.com 1.10,2013-03-25 10:05:00,
2013-03-25 06:20:00,26.8,24.0,29.72,NNW,335,0.0,0.0,90,0.00,,,0.00,weatherlink.com 1.10,2013-03-25 10:20:00,
2013-03-25 06:35:00,26.9,24.0,29.72,NNW,335,0.0,0.0,89,0.00,,,0.00,weatherlink.com 1.10,2013-03-25 10:35:00,
2013-03-25 06:50:00,27.0,24.0,29.72,NNW,335,0.0,0.0,88,0.00,,,0.00,weatherlink.com 1.10,2013-03-25 10:50:00,
2013-03-25 07:05:00,27.1,24.0,29.73,NNW,335,0.0,0.0,87,0.00,,,0.00,weatherlink.com 1.10,2013-03-25 11:05:00,
2013-03-25 07:20:00,27.2,24.0,29.73,NNW,335,0.0,0.0,87,0.00,,,0.00,weatherlink.com 1.10,2013-03-25 11:20:00,
2013-03-25 07:35:00,27.4,24.0,29.73,NNW,335,0.0,0.0,87,0.00,,,0.00,weatherlink.com 1.10,2013-03-25 11:35:00,
2013-03-25 07:50:00,27.8,24.0,29.73,NNW,335,0.0,1.0,87,0.00,,,0.00,weatherlink.com 1.10,2013-03-25 11:50:00,
2013-03-25 08:05:00,28.5,25.0,29.73,NNW,335,1.0,1.0,87,0.00,,,0.00,weatherlink.com 1.10,2013-03-25 12:05:00,
2013-03-25 08:20:00,29.5,26.0,29.73,NNW,335,0.0,0.0,85,0.00,,,0.00,weatherlink.com 1.10,2013-03-25 12:20:00,
2013-03-25 08:35:00,30.4,26.0,29.72,NNW,335,0.0,0.0,84,0.00,,,0.00,weatherlink.com 1.10,2013-03-25 12:35:00,
2013-03-25 08:50:00,31.4,26.0,29.72,NNW,335,0.0,0.0,81,0.00,,,0.00,weatherlink.com 1.10,2013-03-25 12:50:00,
2013-03-25 09:05:00,32.2,26.0,29.71,NW,309,0.0,1.0,78,0.00,,,0.00,weatherlink.com 1.10,2013-03-25 13:05:00,
2013-03-25 09:20:00,32.8,26.0,29.71,North,351,0.0,1.0,76,0.00,,,0.00,weatherlink.com 1.10,2013-03-25 13:20:00,
2013-03-25 09:35:00,33.5,25.0,29.70,NNW,348,0.0,2.0,72,0.00,,,0.00,weatherlink.com 1.10,2013-03-25 13:35:00,
2013-03-25 09:50:00,34.5,26.0,29.70,South,169,0.0,3.0,71,0.00,,,0.00,weatherlink.com 1.10,2013-03-25 13:50:00,
2013-03-25 10:05:00,35.8,27.0,29.70,SSW,203,1.0,3.0,69,0.00,,,0.00,weatherlink.com 1.10,2013-03-25 14:05:00,
2013-03-25 10:20:00,36.2,27.0,29.70,SSW,209,1.0,2.0,69,0.00,,,0.00,weatherlink.com 1.10,2013-03-25 14:20:00,
2013-03-25 10:35:00,37.4,28.0,29.69,SW,220,0.0,3.0,68,0.00,,,0.00,weatherlink.com 1.10,2013-03-25 14:35:00,
2013-03-25 10:50:00,37.5,25.0,29.68,NW,325,0.0,6.0,62,0.00,,,0.00,weatherlink.com 1.10,2013-03-25 14:50:00,
2013-03-25 11:06:00,37.8,27.0,29.68,North,5,0.0,3.0,64,0.00,,,0.00,weatherlink.com 1.10,2013-03-25 15:06:00,
2013-03-25 11:21:00,39.0,26.0,29.68,NNE,28,0.0,4.0,61,0.00,,,0.00,weatherlink.com 1.10,2013-03-25 15:21:00,
2013-03-25 11:36:00,39.5,26.0,29.67,NW,317,2.0,6.0,60,0.00,,,0.00,weatherlink.com 1.10,2013-03-25 15:36:00,
2013-03-25 11:51:00,39.8,27.0,29.66,NW,325,2.0,8.0,60,0.00,,,0.00,weatherlink.com 1.10,2013-03-25 15:51:00,
2013-03-25 12:06:00,40.4,27.0,29.65,ENE,62,2.0,6.0,60,0.00,,,0.00,weatherlink.com 1.10,2013-03-25 16:06:00,
2013-03-25 12:21:00,41.3,26.0,29.64,NNE,24,2.0,4.0,56,0.00,,,0.00,weatherlink.com 1.10,2013-03-25 16:21:00,
2013-03-25 12:51:00,43.2,26.0,29.62,NNW,336,4.0,13.0,51,0.00,,,0.00,weatherlink.com 1.10,2013-03-25 16:51:00,
2013-03-25 13:06:00,43.0,28.0,29.61,NNE,27,2.0,9.0,55,0.00,,,0.00,weatherlink.com 1.10,2013-03-25 17:06:00,
2013-03-25 13:21:00,42.9,26.0,29.60,NE,51,4.0,7.0,52,0.00,,,0.00,weatherlink.com 1.10,2013-03-25 17:21:00,
2013-03-25 13:36:00,43.1,26.0,29.60,SE,124,0.0,6.0,51,0.00,,,0.00,weatherlink.com 1.10,2013-03-25 17:36:00,
2013-03-25 14:06:00,43.3,26.0,29.58,ESE,105,2.0,9.0,51,0.00,,,0.00,weatherlink.com 1.10,2013-03-25 18:06:00,
2013-03-25 14:21:00,42.2,27.0,29.57,East,95,0.0,12.0,55,0.00,,,0.00,weatherlink.com 1.10,2013-03-25 18:21:00,
2013-03-25 15:06:00,41.7,26.0,29.55,NNE,26,2.0,7.0,55,0.00,,,0.00,weatherlink.com 1.10,2013-03-25 19:06:00,
2013-03-25 15:21:00,41.7,27.0,29.54,NNW,342,0.0,9.0,57,0.00,,,0.00,weatherlink.com 1.10,2013-03-25 19:21:00,
2013-03-25 15:36:00,41.8,27.0,29.54,SSW,213,4.0,8.0,56,0.00,,,0.00,weatherlink.com 1.10,2013-03-25 19:36:00,
2013-03-25 15:51:00,41.7,27.0,29.54,NNE,31,7.0,11.0,56,0.00,,,0.00,weatherlink.com 1.10,2013-03-25 19:51:00,
2013-03-25 16:06:00,41.4,27.0,29.54,ENE,66,0.0,11.0,56,0.00,,,0.00,weatherlink.com 1.10,2013-03-25 20:06:00,
2013-03-25 16:21:00,41.1,27.0,29.54,ENE,63,1.0,12.0,57,0.00,,,0.00,weatherlink.com 1.10,2013-03-25 20:21:00,
2013-03-25 16:36:00,40.9,27.0,29.55,NNE,12,3.0,11.0,57,0.00,,,0.00,weatherlink.com 1.10,2013-03-25 20:36:00,
2013-03-25 16:51:00,40.7,27.0,29.55,ENE,59,3.0,7.0,59,0.00,,,0.00,weatherlink.com 1.10,2013-03-25 20:51:00,
2013-03-25 17:06:00,40.6,27.0,29.55,NNE,15,3.0,5.0,58,0.00,,,0.00,weatherlink.com 1.10,2013-03-25 21:06:00,
2013-03-25 17:21:00,40.6,27.0,29.55,NNE,30,0.0,6.0,58,0.00,,,0.00,weatherlink.com 1.10,2013-03-25 21:21:00,
2013-03-25 17:36:00,40.4,26.0,29.56,NW,321,2.0,4.0,58,0.00,,,0.00,weatherlink.com 1.10,2013-03-25 21:36:00,
2013-03-25 17:51:00,40.1,27.0,29.57,North,355,1.0,6.0,59,0.00,,,0.00,weatherlink.com 1.10,2013-03-25 21:51:00,
2013-03-25 18:06:00,39.8,27.0,29.57,NNE,17,1.0,6.0,60,0.00,,,0.00,weatherlink.com 1.10,2013-03-25 22:06:00,
2013-03-25 18:21:00,39.6,27.0,29.57,NNE,17,0.0,3.0,60,0.00,,,0.00,weatherlink.com 1.10,2013-03-25 22:21:00,
2013-03-25 18:36:00,39.3,27.0,29.58,NE,38,0.0,4.0,61,0.00,,,0.00,weatherlink.com 1.10,2013-03-25 22:36:00,
2013-03-25 18:51:00,39.1,27.0,29.58,NNE,30,1.0,4.0,62,0.00,,,0.00,weatherlink.com 1.10,2013-03-25 22:51:00,
2013-03-25 19:06:00,39.0,27.0,29.59,North,355,1.0,6.0,62,0.00,,,0.00,weatherlink.com 1.10,2013-03-25 23:06:00,
2013-03-25 19:22:00,38.8,27.0,29.59,NNE,24,0.0,5.0,62,0.00,,,0.00,weatherlink.com 1.10,2013-03-25 23:22:00,
2013-03-25 19:36:00,38.6,27.0,29.59,North,5,0.0,5.0,63,0.00,,,0.00,weatherlink.com 1.10,2013-03-25 23:36:00,
2013-03-25 19:51:00,38.5,27.0,29.60,North,355,0.0,6.0,64,0.00,,,0.00,weatherlink.com 1.10,2013-03-25 23:51:00,
2013-03-25 20:07:00,38.3,27.0,29.60,North,5,1.0,3.0,64,0.00,,,0.00,weatherlink.com 1.10,2013-03-26 00:07:00,
2013-03-25 20:21:00,38.0,27.0,29.60,North,5,0.0,2.0,64,0.00,,,0.00,weatherlink.com 1.10,2013-03-26 00:21:00,
2013-03-25 20:36:00,37.8,27.0,29.61,North,5,0.0,0.0,65,0.00,,,0.00,weatherlink.com 1.10,2013-03-26 00:36:00,
2013-03-25 20:51:00,37.4,27.0,29.61,North,9,0.0,2.0,66,0.00,,,0.00,weatherlink.com 1.10,2013-03-26 00:51:00,
2013-03-25 21:21:00,37.0,27.0,29.62,North,9,0.0,1.0,67,0.00,,,0.00,weatherlink.com 1.10,2013-03-26 01:21:00,
2013-03-25 21:36:00,36.7,27.0,29.63,North,9,0.0,1.0,67,0.00,,,0.00,weatherlink.com 1.10,2013-03-26 01:36:00,
2013-03-25 21:51:00,35.9,26.0,29.63,North,9,0.0,0.0,68,0.00,,,0.00,weatherlink.com 1.10,2013-03-26 01:51:00,
2013-03-25 22:06:00,35.4,27.0,29.63,North,9,0.0,1.0,70,0.00,,,0.00,weatherlink.com 1.10,2013-03-26 02:06:00,
2013-03-25 22:21:00,35.0,26.0,29.63,North,9,0.0,0.0,70,0.00,,,0.00,weatherlink.com 1.10,2013-03-26 02:21:00,
2013-03-25 22:36:00,35.0,26.0,29.63,North,9,0.0,2.0,71,0.00,,,0.00,weatherlink.com 1.10,2013-03-26 02:36:00,
2013-03-25 22:51:00,35.1,27.0,29.63,North,9,0.0,1.0,71,0.00,,,0.00,weatherlink.com 1.10,2013-03-26 02:51:00,
2013-03-25 23:06:00,35.1,27.0,29.63,North,9,0.0,0.0,72,0.00,,,0.00,weatherlink.com 1.10,2013-03-26 03:06:00,
2013-03-25 23:21:00,35.2,27.0,29.63,North,9,0.0,0.0,71,0.00,,,0.00,weatherlink.com 1.10,2013-03-26 03:21:00,
2013-03-25 23:36:00,35.6,27.0,29.63,North,9,0.0,1.0,71,0.00,,,0.00,weatherlink.com 1.10,2013-03-26 03:36:00,
2013-03-25 23:51:00,35.9,27.0,29.63,North,9,0.0,1.0,70,0.00,,,0.00,weatherlink.com 1.10,2013-03-26 03:51:00,